createdAt,value
2019-01-23T01:00:36.527Z,62.27
2019-01-23T01:05:38.548Z,62.44
2019-01-23T01:10:39.877Z,62.78
2019-01-23T01:15:41.189Z,62.17
2019-01-23T01:20:42.509Z,62.14
2019-01-23T01:25:43.812Z,62.21
2019-01-23T02:34:05.788Z,62.20
2019-01-23T02:39:07.093Z,62.51
2019-01-23T02:44:08.436Z,62.17
2019-01-23T02:49:10.490Z,62.44
2019-01-23T02:54:11.830Z,62.68
2019-01-23T02:59:17.531Z,62.60
2019-01-23T04:01:15.527Z,63.86
2019-01-23T04:06:16.828Z,63.43
2019-01-23T04:11:18.133Z,62.72
2019-01-23T04:16:19.457Z,62.66
2019-01-23T04:21:20.760Z,62.75
2019-01-23T04:26:22.068Z,62.33
2019-01-23T05:34:46.180Z,61.22
2019-01-23T05:39:47.500Z,60.63
2019-01-23T05:44:48.786Z,60.59
2019-01-23T05:49:50.084Z,60.36
2019-01-23T05:54:51.359Z,60.91
2019-01-23T05:59:52.645Z,61.26
2019-01-23T07:01:58.257Z,64.66
2019-01-23T07:07:01.194Z,64.99
2019-01-23T07:12:02.584Z,64.85
2019-01-23T07:17:03.883Z,64.99
2019-01-23T07:22:05.197Z,64.80
2019-01-23T07:27:06.541Z,64.82
2019-01-23T08:35:29.189Z,64.37
2019-01-23T08:40:30.508Z,64.16
2019-01-23T08:45:31.837Z,64.09
2019-01-23T08:50:34.091Z,64.27
2019-01-23T08:55:36.125Z,64.19
2019-01-23T10:03:59.197Z,64.66
2019-01-23T10:09:00.478Z,65.70
2019-01-23T10:14:02.505Z,64.92
2019-01-23T10:19:03.801Z,64.19
2019-01-23T10:24:05.090Z,63.87
2019-01-23T10:29:06.372Z,64.68
2019-01-23T11:31:11.058Z,62.26
2019-01-23T11:36:12.382Z,62.16
2019-01-23T11:41:13.684Z,61.87
2019-01-23T11:46:15.006Z,61.72
2019-01-23T11:51:16.308Z,62.23
2019-01-23T11:56:17.604Z,61.50
2019-01-23T13:04:42.806Z,61.06
2019-01-23T13:09:44.097Z,61.50
2019-01-23T13:14:45.375Z,60.82
2019-01-23T13:19:46.664Z,60.73
2019-01-23T13:24:47.977Z,60.21
2019-01-23T13:29:49.264Z,59.97
2019-01-23T14:31:52.033Z,58.84
2019-01-23T14:36:54.046Z,58.32
2019-01-23T14:41:55.312Z,58.84
2019-01-23T14:46:56.593Z,58.28
2019-01-23T14:51:57.889Z,58.45
2019-01-23T14:56:59.156Z,58.91
2019-01-23T16:05:22.317Z,57.73
2019-01-23T16:10:24.394Z,57.70
2019-01-23T16:15:25.742Z,57.39
2019-01-23T16:20:27.795Z,57.70
2019-01-23T16:25:29.103Z,57.60
2019-01-23T16:30:32.148Z,57.80
2019-01-23T16:35:38.546Z,57.69
2019-01-23T16:40:34.829Z,57.77
2019-01-23T16:45:36.236Z,57.48
2019-01-23T16:50:37.510Z,57.91
2019-01-23T16:55:38.803Z,57.27
2019-01-23T17:00:40.864Z,57.00
2019-01-23T17:05:42.177Z,57.06
2019-01-23T17:10:43.457Z,57.30
2019-01-23T17:15:44.769Z,56.87
2019-01-23T17:20:46.882Z,56.84
2019-01-23T17:25:48.188Z,57.02
2019-01-23T17:30:49.516Z,57.86
2019-01-23T17:35:50.868Z,58.01
2019-01-23T17:40:52.177Z,58.17
2019-01-23T17:45:57.864Z,58.33
2019-01-23T17:50:59.192Z,58.48
2019-01-23T17:56:00.512Z,58.85
2019-01-23T18:01:02.644Z,58.55
2019-01-23T18:06:03.926Z,58.59
2019-01-23T18:11:05.246Z,58.53
2019-01-23T18:16:07.454Z,58.81
2019-01-23T18:21:08.792Z,58.70
2019-01-23T18:26:10.130Z,58.70
2019-01-23T18:31:12.430Z,58.74
2019-01-23T18:36:19.370Z,58.37
2019-01-23T18:41:32.751Z,58.56
2019-01-23T18:52:09.466Z,59.57
2019-01-23T19:02:43.378Z,59.70
2019-01-23T19:07:44.701Z,59.02
2019-01-23T19:12:51.698Z,58.80
2019-01-23T19:17:56.458Z,58.57
2019-01-23T19:23:02.007Z,58.72
2019-01-23T19:28:03.512Z,58.85
2019-01-23T19:33:13.313Z,59.38
2019-01-23T19:38:09.269Z,60.90
2019-01-23T19:43:10.981Z,59.95
2019-01-23T19:48:12.452Z,59.50
2019-01-23T19:53:13.732Z,59.46
2019-01-23T19:58:15.035Z,59.37
2019-01-23T20:03:20.343Z,59.50
2019-01-23T20:08:17.818Z,59.37
2019-01-23T20:13:23.664Z,59.69
2019-01-23T20:18:25.104Z,59.60
2019-01-23T20:23:26.484Z,59.78
2019-01-23T20:28:27.853Z,60.78
2019-01-23T20:33:29.191Z,61.15
2019-01-23T20:38:30.529Z,60.58
2019-01-23T20:43:33.152Z,60.45
2019-01-23T20:48:34.472Z,60.41
2019-01-23T20:53:35.815Z,60.07
2019-01-23T20:58:37.181Z,59.71
2019-01-23T21:03:38.505Z,59.11
2019-01-23T21:08:39.810Z,58.73
2019-01-23T21:13:43.802Z,58.76
2019-01-23T21:18:47.267Z,59.08
2019-01-23T21:23:49.726Z,59.03
2019-01-23T21:28:59.509Z,58.62
2019-01-23T21:34:00.947Z,58.62
2019-01-23T21:39:02.331Z,59.30
2019-01-23T21:44:03.652Z,59.50
2019-01-23T21:49:07.107Z,59.20
2019-01-23T21:54:08.539Z,59.88
2019-01-23T21:59:09.907Z,60.10
2019-01-23T22:04:20.152Z,60.17
2019-01-23T22:09:21.469Z,60.32
2019-01-23T22:14:22.888Z,59.95
2019-01-23T22:19:48.328Z,60.80
2019-01-23T22:24:53.069Z,60.14
2019-01-23T22:30:13.820Z,59.99
2019-01-23T22:35:15.360Z,60.53
2019-01-23T22:40:16.660Z,60.16
2019-01-23T22:45:17.977Z,59.65
2019-01-23T22:50:20.963Z,59.07
2019-01-23T22:55:23.029Z,58.97
2019-01-23T23:00:30.262Z,59.07
2019-01-23T23:30:56.253Z,58.97
2019-01-23T23:35:57.571Z,58.79
2019-01-23T23:40:58.885Z,58.68
2019-01-23T23:46:00.199Z,58.10
2019-01-23T23:51:01.549Z,58.05
2019-01-23T23:56:02.855Z,58.10
